createdAt,value
2023-06-15T00:05:55.795Z,73.5
2023-06-15T00:21:29.719Z,75.4
2023-06-15T00:37:03.819Z,75.7
2023-06-15T00:52:37.875Z,76.8
2023-06-15T01:08:11.935Z,77
2023-06-15T01:23:46.270Z,77.7
2023-06-15T01:39:20.448Z,77.5
2023-06-15T01:54:54.602Z,77.8
2023-06-15T02:10:28.655Z,77.9
2023-06-15T02:26:02.739Z,78.6
2023-06-15T02:41:36.841Z,79.8
2023-06-15T02:57:10.905Z,80.5
2023-06-15T03:12:45.045Z,80.9
2023-06-15T03:28:19.088Z,81.3
2023-06-15T03:43:53.205Z,80.5
2023-06-15T03:59:27.920Z,79.3
2023-06-15T04:15:02.076Z,77.5
2023-06-15T04:30:36.176Z,76.5
2023-06-15T04:46:10.327Z,75.7
2023-06-15T05:01:44.446Z,73.6
2023-06-15T05:17:18.703Z,72.3
2023-06-15T05:32:53.143Z,70.3
2023-06-15T05:48:27.434Z,68
2023-06-15T06:04:02.803Z,63.9
2023-06-15T06:19:36.966Z,62.1
2023-06-15T06:35:11.149Z,61.3
2023-06-15T06:50:45.395Z,58.7
2023-06-15T07:06:19.842Z,55.9
2023-06-15T07:21:54.239Z,53.8
2023-06-15T07:37:29.357Z,54
2023-06-15T07:53:03.650Z,50.2
2023-06-15T08:08:38.012Z,48.5
2023-06-15T08:24:12.641Z,47
2023-06-15T08:39:47.630Z,47.2
2023-06-15T08:55:21.920Z,44.5
2023-06-15T09:10:56.447Z,43.7
2023-06-15T09:26:30.708Z,40.9
2023-06-15T09:42:05.054Z,40.5
2023-06-15T09:57:39.557Z,38.2
2023-06-15T10:13:13.864Z,37.6
2023-06-15T10:28:48.158Z,36.2
2023-06-15T10:44:24.768Z,34.6
2023-06-15T10:59:59.558Z,34.7
2023-06-15T11:15:34.169Z,34.3
2023-06-15T11:31:10.017Z,34.3
2023-06-15T11:46:44.335Z,35
2023-06-15T12:02:18.898Z,33
2023-06-15T12:17:53.365Z,35.2
2023-06-15T12:33:28.195Z,34.2
2023-06-15T12:49:02.648Z,32.6
2023-06-15T13:04:37.534Z,30.8
2023-06-15T13:20:12.091Z,34
2023-06-15T13:35:46.831Z,33.9
2023-06-15T13:51:21.205Z,33
2023-06-15T14:06:55.638Z,28
2023-06-15T14:22:30.045Z,29.3
2023-06-15T14:38:04.395Z,32.7
2023-06-15T14:53:38.681Z,33
2023-06-15T15:09:13.071Z,33.2
2023-06-15T15:24:47.469Z,31.8
2023-06-15T15:40:22.233Z,30.8
2023-06-15T15:55:56.581Z,32.4
2023-06-15T16:11:31.043Z,30.2
2023-06-15T16:27:05.341Z,29
2023-06-15T16:42:39.672Z,30.4
2023-06-15T16:58:14.192Z,30.9
2023-06-15T17:13:48.489Z,30.3
2023-06-15T17:29:22.755Z,33.2
2023-06-15T17:44:57.113Z,34.3
2023-06-15T18:00:31.392Z,33.7
2023-06-15T18:16:06.047Z,32.6
2023-06-15T18:31:40.497Z,34.6
2023-06-15T18:47:14.755Z,35.4
2023-06-15T19:02:49.492Z,38
2023-06-15T19:18:24.052Z,40.2
2023-06-15T19:33:58.302Z,41.5
2023-06-15T19:49:32.766Z,43.6
2023-06-15T20:05:07.082Z,45.4
2023-06-15T20:20:41.301Z,46.7
2023-06-15T20:36:16.162Z,48.9
2023-06-15T20:51:50.433Z,50.3
2023-06-15T21:07:24.657Z,50.9
2023-06-15T21:22:58.895Z,52.2
2023-06-15T21:38:33.137Z,53.2
2023-06-15T21:54:07.323Z,52.9
2023-06-15T22:09:41.513Z,54.5
2023-06-15T22:25:15.729Z,55.4
2023-06-15T22:40:49.933Z,54.4
2023-06-15T22:56:24.124Z,55
2023-06-15T23:11:58.972Z,56.2
2023-06-15T23:27:33.243Z,57.9
2023-06-15T23:43:07.526Z,59.3
2023-06-15T23:58:41.826Z,59.2
